createdAt,value
2018-10-12T00:00:24.876Z,19.9
2018-10-12T00:01:25.401Z,19.84
2018-10-12T00:02:26.758Z,19.79
2018-10-12T00:03:28.140Z,19.77
2018-10-12T00:04:28.213Z,19.79
2018-10-12T00:05:30.404Z,19.77
2018-10-12T00:06:30.480Z,19.74
2018-10-12T00:07:30.992Z,19.75
2018-10-12T00:08:31.792Z,19.75
2018-10-12T00:09:32.870Z,19.66
2018-10-12T00:10:33.944Z,19.64
2018-10-12T00:11:34.745Z,19.63
2018-10-12T00:12:35.819Z,19.71
2018-10-12T00:13:36.619Z,19.72
2018-10-12T00:14:37.411Z,19.81
2018-10-12T00:15:38.205Z,19.78
2018-10-12T00:16:38.722Z,19.78
2018-10-12T00:17:40.242Z,19.79
2018-10-12T00:18:40.767Z,19.72
2018-10-12T00:19:42.287Z,19.84
2018-10-12T00:20:43.082Z,19.89
2018-10-12T00:21:44.055Z,19.87
2018-10-12T00:22:44.851Z,19.72
2018-10-12T00:23:45.928Z,19.77
2018-10-12T00:24:46.557Z,19.87
2018-10-12T00:25:47.631Z,19.89
2018-10-12T00:26:48.152Z,19.84
2018-10-12T00:27:48.672Z,19.82
2018-10-12T00:28:48.745Z,19.81
2018-10-12T00:29:50.097Z,19.89
2018-10-12T00:30:51.447Z,19.81
2018-10-12T00:31:51.697Z,19.87
2018-10-12T00:32:52.771Z,19.87
2018-10-12T00:33:53.287Z,19.9
2018-10-12T00:34:54.804Z,19.87
2018-10-12T00:35:55.601Z,19.82
2018-10-12T00:36:56.119Z,19.82
2018-10-12T00:37:56.642Z,19.79
2018-10-12T00:38:57.880Z,19.81
2018-10-12T00:39:58.675Z,19.81
2018-10-12T00:40:59.752Z,19.71
2018-10-12T00:42:00.998Z,19.67
2018-10-12T00:43:01.648Z,19.79
2018-10-12T00:44:01.998Z,19.59
2018-10-12T00:45:03.353Z,19.72
2018-10-12T00:46:02.871Z,19.71
2018-10-12T00:47:03.666Z,19.64
2018-10-12T00:48:04.465Z,19.75
2018-10-12T00:49:04.985Z,19.64
2018-10-12T00:50:05.611Z,19.67
2018-10-12T00:51:05.963Z,19.64
2018-10-12T00:52:07.049Z,19.63
2018-10-12T00:53:07.992Z,19.63
2018-10-12T00:54:08.063Z,19.7
2018-10-12T00:55:08.857Z,19.67
2018-10-12T00:56:09.931Z,19.55
2018-10-12T00:57:11.736Z,19.56
2018-10-12T00:58:12.526Z,19.44
2018-10-12T00:59:14.319Z,19.44
2018-10-12T01:00:15.393Z,19.42
2018-10-12T01:01:16.191Z,19.52
2018-10-12T01:02:17.168Z,19.47
2018-10-12T01:03:18.411Z,19.49
2018-10-12T01:04:19.486Z,19.45
2018-10-12T01:05:20.601Z,19.56
2018-10-12T01:06:20.398Z,19.48
2018-10-12T01:07:21.474Z,19.42
2018-10-12T01:08:22.270Z,19.52
2018-10-12T01:09:23.066Z,19.47
2018-10-12T01:10:24.178Z,19.41
2018-10-12T01:11:24.699Z,19.42
2018-10-12T01:12:25.524Z,19.47
2018-10-12T01:13:26.608Z,19.42
2018-10-12T01:14:27.404Z,19.47
2018-10-12T01:15:28.200Z,19.45
2018-10-12T01:16:29.006Z,19.37
2018-10-12T01:17:29.524Z,19.47
2018-10-12T01:18:30.875Z,19.55
2018-10-12T01:19:31.393Z,19.48
2018-10-12T01:20:33.468Z,19.39
2018-10-12T01:21:33.823Z,19.39
2018-10-12T01:22:34.373Z,19.39
2018-10-12T01:23:34.888Z,19.44
2018-10-12T01:24:35.685Z,19.39
2018-10-12T01:25:37.034Z,19.27
2018-10-12T01:26:36.828Z,19.32
2018-10-12T01:27:37.625Z,19.24
2018-10-12T01:28:38.140Z,19.23
2018-10-12T01:29:38.946Z,19.17
2018-10-12T01:30:40.463Z,19.19
2018-10-12T01:31:40.535Z,19.11
2018-10-12T01:32:41.789Z,19.04
2018-10-12T01:33:42.590Z,19.09
2018-10-12T01:34:42.956Z,18.97
2018-10-12T01:35:43.470Z,19.08
2018-10-12T01:36:44.265Z,18.94
2018-10-12T01:37:44.895Z,18.92
2018-10-12T01:38:45.253Z,18.91
2018-10-12T01:39:46.046Z,18.74
2018-10-12T01:40:46.844Z,18.86
2018-10-12T01:41:47.641Z,18.89
2018-10-12T01:42:49.475Z,18.78
2018-10-12T01:43:49.824Z,18.78
2018-10-12T01:44:51.183Z,18.89
2018-10-12T01:45:51.976Z,18.92
2018-10-12T01:46:53.602Z,19
2018-10-12T01:47:53.432Z,18.97
2018-10-12T01:48:54.226Z,18.88
2018-10-12T01:49:55.577Z,18.86
2018-10-12T01:50:56.375Z,18.74
2018-10-12T01:51:56.614Z,18.88
2018-10-12T01:52:57.694Z,18.97
2018-10-12T01:53:58.216Z,18.96
2018-10-12T01:54:59.014Z,18.94
2018-10-12T01:56:00.371Z,18.91
2018-10-12T01:57:01.170Z,18.82
2018-10-12T01:58:01.697Z,18.78
2018-10-12T01:59:02.490Z,18.74
2018-10-12T02:00:03.841Z,18.74
2018-10-12T02:01:04.473Z,18.73
2018-10-12T02:02:04.547Z,18.73
2018-10-12T02:03:06.077Z,18.73
2018-10-12T02:04:07.433Z,18.73
2018-10-12T02:05:08.226Z,18.74
2018-10-12T02:06:09.025Z,18.89
2018-10-12T02:07:10.384Z,18.94
2018-10-12T02:08:11.180Z,18.96
2018-10-12T02:09:12.260Z,18.97
2018-10-12T02:10:13.056Z,19
2018-10-12T02:11:14.572Z,19.01
2018-10-12T02:12:15.645Z,19.04
2018-10-12T02:13:16.896Z,18.98
2018-10-12T02:14:17.418Z,18.97
2018-10-12T02:15:18.494Z,19.08
2018-10-12T02:16:18.845Z,19.11
2018-10-12T02:17:20.197Z,19.15
2018-10-12T02:18:21.272Z,19.17
2018-10-12T02:19:22.067Z,19.22
2018-10-12T02:20:23.144Z,19.19
2018-10-12T02:21:23.669Z,19.24
2018-10-12T02:22:25.305Z,19.23
2018-10-12T02:23:25.274Z,19.24
2018-10-12T02:24:26.192Z,19.3
2018-10-12T02:25:27.134Z,19.32
2018-10-12T02:26:27.488Z,19.32
2018-10-12T02:27:28.006Z,19.35
2018-10-12T02:28:28.802Z,19.24
2018-10-12T02:29:29.156Z,19.35
2018-10-12T02:30:30.787Z,19.32
2018-10-12T02:31:31.418Z,19.44
2018-10-12T02:32:32.602Z,19.35
2018-10-12T02:33:32.859Z,19.32
2018-10-12T02:34:33.654Z,19.32
2018-10-12T02:35:34.449Z,19.26
2018-10-12T02:36:35.803Z,19.32
2018-10-12T02:37:37.152Z,19.39
2018-10-12T02:38:37.505Z,19.48
2018-10-12T02:39:38.582Z,19.48
2018-10-12T02:40:39.321Z,19.48
2018-10-12T02:41:40.117Z,19.42
2018-10-12T02:42:41.312Z,19.42
2018-10-12T02:43:41.837Z,19.37
2018-10-12T02:44:42.071Z,19.44
2018-10-12T02:45:43.144Z,19.39
2018-10-12T02:46:43.498Z,19.41
2018-10-12T02:47:44.127Z,19.39
2018-10-12T02:48:44.199Z,19.44
2018-10-12T02:49:45.993Z,19.45
2018-10-12T02:50:47.346Z,19.37
2018-10-12T02:51:48.417Z,19.42
2018-10-12T02:52:49.256Z,19.38
2018-10-12T02:53:49.810Z,19.26
2018-10-12T02:54:50.890Z,19.26
2018-10-12T02:55:52.247Z,19.2
2018-10-12T02:56:53.038Z,19.11
2018-10-12T02:57:53.396Z,19.04
2018-10-12T02:58:54.466Z,18.96
2018-10-12T02:59:55.258Z,18.76
2018-10-12T03:00:56.332Z,18.71
2018-10-12T03:01:57.963Z,18.7
2018-10-12T03:02:58.758Z,18.73
2018-10-12T03:03:59.594Z,18.67
2018-10-12T03:04:59.667Z,18.66
2018-10-12T03:06:00.463Z,18.81
2018-10-12T03:07:01.260Z,18.63
2018-10-12T03:08:02.902Z,18.76
2018-10-12T03:09:03.143Z,18.67
2018-10-12T03:10:04.229Z,18.7
2018-10-12T03:11:05.025Z,18.66
2018-10-12T03:12:06.382Z,18.64
2018-10-12T03:13:07.285Z,18.73
2018-10-12T03:14:07.394Z,18.55
2018-10-12T03:15:07.747Z,18.6
2018-10-12T03:16:09.655Z,18.57
2018-10-12T03:17:10.014Z,18.58
2018-10-12T03:18:10.358Z,18.45
2018-10-12T03:19:10.158Z,18.49
2018-10-12T03:20:10.788Z,18.42
2018-10-12T03:21:11.311Z,18.43
2018-10-12T03:22:12.386Z,18.21
2018-10-12T03:23:12.736Z,18.13
2018-10-12T03:24:13.974Z,18.12
2018-10-12T03:25:15.066Z,17.97
2018-10-12T03:26:15.137Z,17.94
2018-10-12T03:27:16.765Z,18.02
2018-10-12T03:28:18.136Z,17.91
2018-10-12T03:29:17.934Z,17.9
2018-10-12T03:30:19.593Z,17.75
2018-10-12T03:31:20.782Z,17.76
2018-10-12T03:32:21.696Z,17.78
2018-10-12T03:33:22.332Z,17.8
2018-10-12T03:34:23.422Z,17.78
2018-10-12T03:35:24.775Z,17.88
2018-10-12T03:36:25.404Z,17.93
2018-10-12T03:37:26.685Z,17.87
2018-10-12T03:38:27.599Z,17.84
2018-10-12T03:39:28.680Z,17.79
2018-10-12T03:40:29.477Z,17.49
2018-10-12T03:41:30.284Z,17.35
2018-10-12T03:42:30.787Z,17.31
2018-10-12T03:43:32.585Z,17.3
2018-10-12T03:44:33.112Z,17.19
2018-10-12T03:45:34.240Z,17.14
2018-10-12T03:46:34.873Z,17.16
2018-10-12T03:47:35.948Z,17.09
2018-10-12T03:48:37.033Z,17.23
2018-10-12T03:49:37.383Z,17.22
2018-10-12T03:50:38.174Z,17.17
2018-10-12T03:51:39.528Z,17.2
2018-10-12T03:52:40.042Z,17.22
2018-10-12T03:53:40.559Z,17.19
2018-10-12T03:54:41.364Z,17.19
2018-10-12T03:55:41.440Z,17.22
2018-10-12T03:56:42.068Z,17.23
2018-10-12T03:57:43.145Z,17.14
2018-10-12T03:58:43.938Z,17.22
2018-10-12T03:59:45.294Z,17.17
2018-10-12T04:00:46.090Z,17.12
2018-10-12T04:01:47.443Z,17.2
2018-10-12T04:02:49.570Z,17.01
2018-10-12T04:03:49.933Z,17.02
2018-10-12T04:04:50.637Z,17.01
2018-10-12T04:05:51.716Z,17.02
2018-10-12T04:06:52.785Z,16.92
2018-10-12T04:07:52.861Z,16.82
2018-10-12T04:08:53.658Z,16.77
2018-10-12T04:09:55.286Z,16.74
2018-10-12T04:10:55.924Z,16.79
2018-10-12T04:11:56.450Z,16.72
2018-10-12T04:12:57.243Z,16.69
2018-10-12T04:13:58.612Z,16.65
2018-10-12T04:14:59.438Z,16.76
2018-10-12T04:16:00.796Z,16.82
2018-10-12T04:17:01.869Z,16.79
2018-10-12T04:18:03.059Z,16.83
2018-10-12T04:19:04.130Z,16.72
2018-10-12T04:20:04.656Z,16.68
2018-10-12T04:21:05.173Z,16.58
2018-10-12T04:22:06.255Z,16.72
2018-10-12T04:23:07.048Z,16.59
2018-10-12T04:24:07.844Z,16.62
2018-10-12T04:25:08.932Z,16.55
2018-10-12T04:26:09.738Z,16.59
2018-10-12T04:27:11.113Z,16.55
2018-10-12T04:28:11.629Z,16.55
2018-10-12T04:29:12.701Z,16.58
2018-10-12T04:30:13.494Z,16.47
2018-10-12T04:31:13.842Z,16.46
2018-10-12T04:32:14.648Z,16.41
2018-10-12T04:33:15.723Z,16.31
2018-10-12T04:34:16.236Z,16.31
2018-10-12T04:35:01.345Z,16.21
2018-10-12T04:36:02.191Z,16.16
2018-10-12T04:37:02.432Z,16.13
2018-10-12T04:38:03.614Z,15.94
2018-10-12T04:39:04.688Z,16.02
2018-10-12T04:40:05.206Z,15.94
2018-10-12T04:41:06.556Z,15.88
2018-10-12T04:42:07.071Z,15.87
2018-10-12T04:43:07.873Z,15.87
2018-10-12T04:44:08.669Z,15.87
2018-10-12T04:45:09.188Z,15.88
2018-10-12T04:46:09.723Z,15.9
2018-10-12T04:47:11.785Z,16.02
2018-10-12T04:48:11.872Z,16.06
2018-10-12T04:49:12.950Z,16.17
2018-10-12T04:50:13.910Z,16.29
2018-10-12T04:51:14.982Z,16.31
2018-10-12T04:52:16.053Z,16.39
2018-10-12T04:53:16.141Z,16.34
2018-10-12T04:54:17.503Z,16.43
2018-10-12T04:55:18.138Z,16.4
2018-10-12T04:56:18.970Z,16.43
2018-10-12T04:57:19.785Z,16.36
2018-10-12T04:58:20.857Z,16.4
2018-10-12T04:59:21.378Z,16.31
2018-10-12T05:00:22.173Z,16.28
2018-10-12T05:01:23.805Z,16.12
2018-10-12T05:02:24.326Z,16.03
2018-10-12T05:03:25.674Z,16.03
2018-10-12T05:04:25.761Z,16.08
2018-10-12T05:05:26.289Z,15.98
2018-10-12T05:06:27.411Z,15.94
2018-10-12T05:07:27.972Z,15.92
2018-10-12T05:08:29.354Z,15.92
2018-10-12T05:09:30.437Z,15.88
2018-10-12T05:10:31.523Z,15.96
2018-10-12T05:11:32.323Z,15.96
2018-10-12T05:12:33.675Z,15.94
2018-10-12T05:13:35.037Z,16.02
2018-10-12T05:14:35.670Z,15.88
2018-10-12T05:15:36.194Z,15.85
2018-10-12T05:16:36.723Z,15.69
2018-10-12T05:17:37.795Z,15.8
2018-10-12T05:18:38.318Z,15.8
2018-10-12T05:19:39.667Z,15.72
2018-10-12T05:20:39.742Z,15.8
2018-10-12T05:21:40.536Z,15.83
2018-10-12T05:22:41.614Z,15.9
2018-10-12T05:23:42.241Z,15.88
2018-10-12T05:24:43.605Z,15.98
2018-10-12T05:25:44.236Z,15.88
2018-10-12T05:26:45.320Z,15.92
2018-10-12T05:27:46.676Z,15.88
2018-10-12T05:28:46.475Z,15.96
2018-10-12T05:29:47.717Z,16.05
2018-10-12T05:30:48.792Z,15.85
2018-10-12T05:31:49.309Z,15.96
2018-10-12T05:32:50.661Z,15.99
2018-10-12T05:33:51.292Z,15.9
2018-10-12T05:34:51.816Z,16.02
2018-10-12T05:35:52.930Z,15.9
2018-10-12T05:36:53.769Z,15.91
2018-10-12T05:37:53.582Z,16.02
2018-10-12T05:38:54.098Z,15.98
2018-10-12T05:39:55.899Z,15.99
2018-10-12T05:40:56.420Z,15.85
2018-10-12T05:41:57.219Z,15.99
2018-10-12T05:42:58.622Z,15.96
2018-10-12T05:43:58.915Z,16
2018-10-12T05:44:59.545Z,15.96
2018-10-12T05:46:00.626Z,15.8
2018-10-12T05:47:01.153Z,15.69
2018-10-12T05:48:01.241Z,15.81
2018-10-12T05:49:02.652Z,15.84
2018-10-12T05:50:02.335Z,15.9
2018-10-12T05:51:04.106Z,15.84
2018-10-12T05:52:04.091Z,15.85
2018-10-12T05:53:04.648Z,15.83
2018-10-12T05:54:05.448Z,15.81
2018-10-12T05:55:06.265Z,15.8
2018-10-12T05:56:07.063Z,15.73
2018-10-12T05:57:07.907Z,15.72
2018-10-12T05:58:08.750Z,15.83
2018-10-12T05:59:10.102Z,15.92
2018-10-12T06:00:11.207Z,15.9
2018-10-12T06:01:13.449Z,15.9
2018-10-12T06:02:14.176Z,15.96
2018-10-12T06:03:14.696Z,15.78
2018-10-12T06:04:15.603Z,15.78
2018-10-12T06:05:16.984Z,15.84
2018-10-12T06:06:17.782Z,15.73
2018-10-12T06:07:19.198Z,15.81
2018-10-12T06:08:20.505Z,15.8
2018-10-12T06:09:24.001Z,15.78
2018-10-12T06:10:23.259Z,15.72
2018-10-12T06:11:24.098Z,15.69
2018-10-12T06:12:23.803Z,15.83
2018-10-12T06:13:24.892Z,15.84
2018-10-12T06:14:25.951Z,15.81
2018-10-12T06:15:27.275Z,15.83
2018-10-12T06:16:27.653Z,15.9
2018-10-12T06:17:28.910Z,15.85
2018-10-12T06:18:29.934Z,15.98
2018-10-12T06:19:31.115Z,15.88
2018-10-12T06:20:32.473Z,15.9
2018-10-12T06:21:32.747Z,15.92
2018-10-12T06:22:33.987Z,15.98
2018-10-12T06:23:35.211Z,15.87
2018-10-12T06:24:39.702Z,15.99
2018-10-12T06:24:48.681Z,15.88
2018-10-12T06:25:50.123Z,15.83
2018-10-12T06:26:51.391Z,15.84
2018-10-12T06:27:52.205Z,15.81
2018-10-12T06:28:51.884Z,15.63
2018-10-12T06:29:55.001Z,15.7
2018-10-12T06:30:56.791Z,15.8
2018-10-12T06:31:56.084Z,15.84
2018-10-12T06:32:59.084Z,15.9
2018-10-12T06:33:58.572Z,15.81
2018-10-12T06:35:00.079Z,15.84
2018-10-12T06:36:00.892Z,15.87
2018-10-12T06:37:01.834Z,15.84
2018-10-12T06:38:03.092Z,15.88
2018-10-12T06:39:04.184Z,15.92
2018-10-12T06:40:04.711Z,15.98
2018-10-12T06:41:06.617Z,16.03
2018-10-12T06:42:06.212Z,16.1
2018-10-12T06:43:07.292Z,16.06
2018-10-12T06:44:08.182Z,16.17
2018-10-12T06:45:09.160Z,16.08
2018-10-12T06:46:09.166Z,16.16
2018-10-12T06:47:10.692Z,16.17
2018-10-12T06:48:11.219Z,16.13
2018-10-12T06:49:12.293Z,16.34
2018-10-12T06:50:13.377Z,16.29
2018-10-12T06:51:14.179Z,16.32
2018-10-12T06:52:15.167Z,16.41
2018-10-12T06:53:15.753Z,16.47
2018-10-12T06:54:16.674Z,16.39
2018-10-12T06:55:17.477Z,16.55
2018-10-12T06:56:18.010Z,16.65
2018-10-12T06:57:18.532Z,17.02
2018-10-12T06:58:19.779Z,17.46
2018-10-12T06:59:21.162Z,17.93
2018-10-12T07:00:21.243Z,18.16
2018-10-12T07:01:22.063Z,18.34
2018-10-12T07:02:23.423Z,18.64
2018-10-12T07:03:24.632Z,18.66
2018-10-12T07:04:24.819Z,18.73
2018-10-12T07:05:25.365Z,18.73
2018-10-12T07:06:26.058Z,18.66
2018-10-12T07:07:26.584Z,18.74
2018-10-12T07:08:27.827Z,18.74
2018-10-12T07:09:29.187Z,18.94
2018-10-12T07:10:29.986Z,19.04
2018-10-12T07:11:30.510Z,19.23
2018-10-12T07:12:31.591Z,19.05
2018-10-12T07:13:33.409Z,19.22
2018-10-12T07:14:33.907Z,19.15
2018-10-12T07:15:34.712Z,19.08
2018-10-12T07:16:35.995Z,19.07
2018-10-12T07:17:36.798Z,19.07
2018-10-12T07:18:37.894Z,19.07
2018-10-12T07:19:39.399Z,18.97
2018-10-12T07:20:39.277Z,18.96
2018-10-12T07:21:40.803Z,18.92
2018-10-12T07:22:41.642Z,18.97
2018-10-12T07:23:43.006Z,18.89
2018-10-12T07:24:44.357Z,18.96
2018-10-12T07:25:46.364Z,19.09
2018-10-12T07:26:46.206Z,19.24
2018-10-12T07:27:47.171Z,19.45
2018-10-12T07:28:48.250Z,19.62
2018-10-12T07:29:48.785Z,19.85
2018-10-12T07:30:49.776Z,20.03
2018-10-12T07:31:50.345Z,20.22
2018-10-12T07:32:50.147Z,20.63
2018-10-12T07:33:51.869Z,20.77
2018-10-12T07:34:53.024Z,21.05
2018-10-12T07:35:53.750Z,21.22
2018-10-12T07:36:55.180Z,21.11
2018-10-12T07:37:56.133Z,21.07
2018-10-12T07:38:56.659Z,21.17
2018-10-12T07:39:57.298Z,21.19
2018-10-12T07:40:57.390Z,21.13
2018-10-12T07:41:58.472Z,20.78
2018-10-12T07:42:59.280Z,20.6
2018-10-12T07:44:00.090Z,20.27
2018-10-12T07:45:00.894Z,20.14
2018-10-12T07:46:01.976Z,20.1
2018-10-12T07:47:03.529Z,20.1
2018-10-12T07:48:04.515Z,19.93
2018-10-12T07:49:04.516Z,19.67
2018-10-12T07:50:05.155Z,19.64
2018-10-12T07:51:06.239Z,19.66
2018-10-12T07:52:06.953Z,19.57
2018-10-12T07:53:09.508Z,19.47
2018-10-12T07:54:09.517Z,19.52
2018-10-12T07:55:10.449Z,19.59
2018-10-12T07:56:11.604Z,19.75
2018-10-12T07:57:12.578Z,19.89
2018-10-12T07:58:13.762Z,19.97
2018-10-12T07:59:14.639Z,19.96
2018-10-12T08:00:16.677Z,20.04
2018-10-12T08:01:16.407Z,20.08
2018-10-12T08:02:17.923Z,20.19
2018-10-12T08:03:18.112Z,20.29
2018-10-12T08:04:18.357Z,20.4
2018-10-12T08:05:20.157Z,20.55
2018-10-12T08:06:21.034Z,20.56
2018-10-12T08:07:22.141Z,20.55
2018-10-12T08:08:22.682Z,20.46
2018-10-12T08:09:23.392Z,20.39
2018-10-12T08:10:24.067Z,20.36
2018-10-12T08:11:25.433Z,20.44
2018-10-12T08:12:26.340Z,20.48
2018-10-12T08:13:27.628Z,20.44
2018-10-12T08:14:28.073Z,20.39
2018-10-12T08:15:29.152Z,20.21
2018-10-12T08:16:29.398Z,20.14
2018-10-12T08:17:30.682Z,20.07
2018-10-12T08:18:31.781Z,20.1
2018-10-12T08:19:32.321Z,20.03
2018-10-12T08:20:33.922Z,20.08
2018-10-12T08:21:34.491Z,19.99
2018-10-12T08:22:36.131Z,20.04
2018-10-12T08:23:35.731Z,19.99
2018-10-12T08:24:37.093Z,20.03
2018-10-12T08:25:38.230Z,20.1
2018-10-12T08:26:37.849Z,19.97
2018-10-12T08:27:39.219Z,20.02
2018-10-12T08:28:39.462Z,19.97
2018-10-12T08:29:40.363Z,19.87
2018-10-12T08:30:40.504Z,19.87
2018-10-12T08:31:41.861Z,19.96
2018-10-12T08:32:42.665Z,19.99
2018-10-12T08:33:44.178Z,19.92
2018-10-12T08:34:43.847Z,20
2018-10-12T08:35:45.524Z,20.22
2018-10-12T08:36:45.614Z,20.39
2018-10-12T08:37:46.983Z,20.71
2018-10-12T08:38:47.519Z,20.9
2018-10-12T08:39:48.598Z,21.14
2018-10-12T08:40:49.403Z,21.28
2018-10-12T08:41:51.505Z,21.35
2018-10-12T08:42:51.659Z,21.3
2018-10-12T08:43:52.463Z,21.29
2018-10-12T08:44:53.824Z,21.37
2018-10-12T08:45:54.505Z,21.43
2018-10-12T08:46:55.034Z,21.65
2018-10-12T08:47:56.594Z,21.63
2018-10-12T08:48:58.175Z,21.6
2018-10-12T08:49:58.815Z,21.72
2018-10-12T08:50:59.625Z,21.68
2018-10-12T08:52:00.503Z,21.74
2018-10-12T08:53:01.160Z,21.68
2018-10-12T08:54:01.965Z,21.72
2018-10-12T08:55:03.321Z,21.74
2018-10-12T08:56:02.848Z,21.7
2018-10-12T08:57:04.244Z,21.62
2018-10-12T08:58:04.803Z,21.54
2018-10-12T08:59:05.381Z,21.53
2018-10-12T09:00:06.188Z,21.53
2018-10-12T09:01:06.265Z,21.5
2018-10-12T09:02:07.353Z,21.65
2018-10-12T09:03:08.384Z,21.66
2018-10-12T09:04:08.975Z,21.65
2018-10-12T09:05:09.781Z,21.65
2018-10-12T09:06:10.311Z,21.96
2018-10-12T09:07:11.121Z,22.26
2018-10-12T09:08:12.378Z,22.41
2018-10-12T09:09:12.744Z,22.26
2018-10-12T09:10:14.103Z,22.22
2018-10-12T09:11:14.473Z,22.22
2018-10-12T09:12:14.999Z,22.3
2018-10-12T09:13:15.803Z,22.31
2018-10-12T09:14:17.329Z,22.33
2018-10-12T09:15:18.190Z,22.36
2018-10-12T09:16:20.269Z,22.37
2018-10-12T09:17:21.440Z,22.36
2018-10-12T09:18:23.484Z,22.52
2018-10-12T09:19:22.820Z,22.62
2018-10-12T09:20:23.438Z,22.65
2018-10-12T09:21:24.402Z,22.67
2018-10-12T09:22:25.202Z,22.73
2018-10-12T09:23:26.394Z,22.73
2018-10-12T09:24:26.966Z,22.78
2018-10-12T09:25:28.043Z,22.81
2018-10-12T09:26:28.568Z,22.8
2018-10-12T09:27:29.653Z,22.76
2018-10-12T09:28:30.748Z,22.68
2018-10-12T09:29:31.977Z,22.76
2018-10-12T09:30:32.832Z,22.77
2018-10-12T09:31:33.875Z,22.83
2018-10-12T09:32:34.676Z,22.83
2018-10-12T09:33:35.757Z,22.83
2018-10-12T09:34:36.284Z,22.78
2018-10-12T09:35:37.606Z,22.78
2018-10-12T09:36:38.525Z,22.8
2018-10-12T09:37:38.095Z,22.77
2018-10-12T09:38:39.500Z,22.81
2018-10-12T09:39:41.125Z,22.89
2018-10-12T09:40:40.657Z,22.84
2018-10-12T09:41:42.253Z,22.76
2018-10-12T09:42:47.712Z,22.67
2018-10-12T09:42:57.289Z,22.67
2018-10-12T09:43:57.061Z,22.63
2018-10-12T09:44:58.460Z,22.55
2018-10-12T09:45:58.821Z,22.44
2018-10-12T09:47:01.213Z,22.31
2018-10-12T09:47:14.693Z,22.23
2018-10-12T09:47:28.552Z,22.33
2018-10-12T09:47:40.920Z,22.36
2018-10-12T09:47:53.094Z,22.22
2018-10-12T09:48:04.870Z,22.25
2018-10-12T09:49:03.208Z,22.36
2018-10-12T09:50:04.573Z,22.47
2018-10-12T09:51:05.632Z,22.51
2018-10-12T09:52:07.001Z,22.55
2018-10-12T09:53:06.474Z,22.74
2018-10-12T09:54:07.585Z,22.95
2018-10-12T09:55:08.175Z,23.47
2018-10-12T09:56:09.059Z,23.86
2018-10-12T09:57:09.878Z,24.29
2018-10-12T09:58:10.965Z,24.65
2018-10-12T09:59:12.065Z,24.96
2018-10-12T10:00:12.888Z,25.11
2018-10-12T10:01:13.766Z,25.21
2018-10-12T10:02:17.173Z,25.31
2018-10-12T10:03:16.657Z,25.67
2018-10-12T10:04:16.342Z,25.86
2018-10-12T10:05:17.254Z,26.18
2018-10-12T10:06:18.624Z,26.42
2018-10-12T10:07:18.992Z,26.61
2018-10-12T10:08:21.567Z,26.74
2018-10-12T10:09:21.550Z,26.92
2018-10-12T10:10:22.022Z,26.93
2018-10-12T10:11:22.901Z,26.7
2018-10-12T10:12:23.160Z,26.78
2018-10-12T10:13:24.252Z,26.91
2018-10-12T10:14:24.789Z,26.98
2018-10-12T10:15:26.681Z,26.98
2018-10-12T10:16:26.280Z,26.89
2018-10-12T10:17:26.537Z,26.93
2018-10-12T10:18:27.353Z,26.93
2018-10-12T10:19:28.572Z,26.91
2018-10-12T10:20:29.663Z,27
2018-10-12T10:21:30.199Z,27.29
2018-10-12T10:22:32.741Z,27.45
2018-10-12T10:23:31.927Z,27.6
2018-10-12T10:24:32.785Z,27.72
2018-10-12T10:25:34.202Z,27.73
2018-10-12T10:26:35.016Z,27.4
2018-10-12T10:27:36.109Z,27.08
2018-10-12T10:28:37.478Z,27.01
2018-10-12T10:29:37.874Z,27.01
2018-10-12T10:30:38.407Z,27.11
2018-10-12T10:31:39.726Z,27.3
2018-10-12T10:32:40.892Z,27.44
2018-10-12T10:33:41.723Z,27.53
2018-10-12T10:34:42.262Z,27.43
2018-10-12T10:35:43.324Z,27.4
2018-10-12T10:36:43.992Z,27.48
2018-10-12T10:37:45.115Z,27.52
2018-10-12T10:38:45.651Z,27.25
2018-10-12T10:39:47.198Z,27.41
2018-10-12T10:40:47.771Z,27.4
2018-10-12T10:41:48.865Z,27.11
2018-10-12T10:42:49.679Z,26.73
2018-10-12T10:43:50.490Z,26.61
2018-10-12T10:44:51.307Z,26.44
2018-10-12T10:45:52.738Z,26.46
2018-10-12T10:46:52.831Z,26.64
2018-10-12T10:47:53.921Z,26.73
2018-10-12T10:48:54.295Z,26.98
2018-10-12T10:49:55.120Z,26.96
2018-10-12T10:50:56.386Z,26.89
2018-10-12T10:51:57.551Z,26.31
2018-10-12T10:52:57.371Z,26.33
2018-10-12T10:53:59.297Z,26.46
2018-10-12T10:55:00.111Z,26.66
2018-10-12T10:55:59.960Z,26.61
2018-10-12T10:57:01.746Z,26.44
2018-10-12T10:58:02.889Z,26.08
2018-10-12T10:59:03.424Z,26.08
2018-10-12T11:00:04.545Z,26.15
2018-10-12T11:01:05.839Z,26.15
2018-10-12T11:02:07.650Z,26.3
2018-10-12T11:03:08.036Z,26.39
2018-10-12T11:04:08.568Z,26.42
2018-10-12T11:05:09.382Z,26.34
2018-10-12T11:06:11.071Z,26.16
2018-10-12T11:07:12.124Z,26.16
2018-10-12T11:08:13.321Z,26.15
2018-10-12T11:09:13.687Z,26.03
2018-10-12T11:10:15.519Z,25.81
2018-10-12T11:11:16.345Z,25.63
2018-10-12T11:12:18.375Z,25.71
2018-10-12T11:13:19.665Z,25.62
2018-10-12T11:14:19.747Z,25.7
2018-10-12T11:15:20.116Z,25.74
2018-10-12T11:16:21.211Z,25.93
2018-10-12T11:17:22.308Z,26.08
2018-10-12T11:18:23.128Z,26.13
2018-10-12T11:19:24.565Z,26.26
2018-10-12T11:20:25.372Z,26.31
2018-10-12T11:21:27.012Z,26.49
2018-10-12T11:22:27.583Z,26.63
2018-10-12T11:23:29.130Z,26.81
2018-10-12T11:24:30.251Z,26.68
2018-10-12T11:25:31.621Z,26.79
2018-10-12T11:26:32.986Z,26.85
2018-10-12T11:27:32.938Z,26.92
2018-10-12T11:28:33.816Z,27.11
2018-10-12T11:29:34.812Z,27.07
2018-10-12T11:30:35.406Z,27.26
2018-10-12T11:31:35.798Z,27.33
2018-10-12T11:32:37.430Z,27.35
2018-10-12T11:33:37.268Z,27.28
2018-10-12T11:34:38.151Z,26.82
2018-10-12T11:35:39.815Z,26.19
2018-10-12T11:36:40.182Z,25.93
2018-10-12T11:37:41.643Z,25.43
2018-10-12T11:38:43.188Z,25.12
2018-10-12T11:39:43.212Z,25.36
2018-10-12T11:40:43.997Z,25.43
2018-10-12T11:41:45.093Z,25.33
2018-10-12T11:42:45.002Z,25.15
2018-10-12T11:43:46.093Z,25.15
2018-10-12T11:44:47.210Z,25.01
2018-10-12T11:45:48.719Z,25.15
2018-10-12T11:46:52.591Z,25.43
2018-10-12T11:47:01.379Z,25.46
2018-10-12T11:48:01.938Z,25.4
2018-10-12T11:49:03.024Z,25.33
2018-10-12T11:50:03.960Z,25.52
2018-10-12T11:51:05.060Z,25.59
2018-10-12T11:52:06.662Z,25.74
2018-10-12T11:53:06.578Z,25.83
2018-10-12T11:54:08.119Z,26.01
2018-10-12T11:55:08.414Z,26.13
2018-10-12T11:56:09.512Z,26.24
2018-10-12T11:57:10.942Z,26.37
2018-10-12T11:58:11.350Z,26.44
2018-10-12T11:59:12.206Z,26.59
2018-10-12T12:00:13.642Z,26.59
2018-10-12T12:01:13.937Z,26.53
2018-10-12T12:02:15.192Z,26.56
2018-10-12T12:03:14.960Z,26.53
2018-10-12T12:04:15.794Z,26.52
2018-10-12T12:05:17.211Z,26.64
2018-10-12T12:06:18.611Z,26.76
2018-10-12T12:07:18.516Z,26.66
2018-10-12T12:08:18.946Z,26.55
2018-10-12T12:09:19.760Z,26.67
2018-10-12T12:10:21.182Z,26.67
2018-10-12T12:11:21.437Z,26.7
2018-10-12T12:12:23.081Z,26.56
2018-10-12T12:13:23.858Z,26.42
2018-10-12T12:14:24.221Z,26.46
2018-10-12T12:15:25.056Z,26.13
2018-10-12T12:16:26.419Z,26.01
2018-10-12T12:17:27.509Z,25.88
2018-10-12T12:18:28.328Z,26.1
2018-10-12T12:19:29.034Z,26.1
2018-10-12T12:20:29.793Z,26.27
2018-10-12T12:21:31.157Z,26.49
2018-10-12T12:22:32.258Z,26.52
2018-10-12T12:23:33.914Z,26.68
2018-10-12T12:24:33.722Z,26.73
2018-10-12T12:25:35.348Z,26.86
2018-10-12T12:26:35.906Z,27.01
2018-10-12T12:27:36.471Z,27.07
2018-10-12T12:28:37.700Z,27.01
2018-10-12T12:29:38.013Z,27
2018-10-12T12:30:39.089Z,26.88
2018-10-12T12:31:39.452Z,26.91
2018-10-12T12:32:39.827Z,26.93
2018-10-12T12:33:40.368Z,26.92
2018-10-12T12:34:42.639Z,27.04
2018-10-12T12:35:46.149Z,27.18
2018-10-12T12:35:57.977Z,27.16
2018-10-12T12:36:55.880Z,27.29
2018-10-12T12:37:56.692Z,27.35
2018-10-12T12:38:57.233Z,27.38
2018-10-12T12:39:58.043Z,27.43
2018-10-12T12:40:58.861Z,27.44
2018-10-12T12:42:00.505Z,27.67
2018-10-12T12:43:01.316Z,27.68
2018-10-12T12:44:02.748Z,27.72
2018-10-12T12:45:03.006Z,27.61
2018-10-12T12:46:04.538Z,27.44
2018-10-12T12:47:05.638Z,27.44
2018-10-12T12:48:06.631Z,27.37
2018-10-12T12:49:08.766Z,27.13
2018-10-12T12:50:08.757Z,27.04
2018-10-12T12:51:09.629Z,26.63
2018-10-12T12:52:10.165Z,26.82
2018-10-12T12:53:11.252Z,27.01
2018-10-12T12:54:11.801Z,27.01
2018-10-12T12:55:13.174Z,27.07
2018-10-12T12:56:15.274Z,27.3
2018-10-12T12:57:14.841Z,27.26
2018-10-12T12:58:15.988Z,26.74
2018-10-12T12:59:16.193Z,26.61